Time;durP1;ratioP1;P1;durP2;ratioP2;P2;SDS_P1;SDS_P2;PMS_P1;PMS_P2;Temp;Humidity;BMP_temperature;BMP_pressure;BME280_temperature;BME280_humidity;BME280_pressure;Samples;Min_cycle;Max_cycle;Signal;HPM_P1;HPM_P2
2022/01/17 00:02:20;;;;;;;102.57;50.90;;;;;;;4.21;100.00;102901.66;4958805;28;20479;-89
2022/01/17 00:04:47;;;;;;;99.28;50.58;;;;;;;4.49;100.00;102950.50;4959303;28;20027;-89
2022/01/17 00:07:13;;;;;;;94.90;48.65;;;;;;;4.64;100.00;102975.31;4959132;28;20085;-90
2022/01/17 00:09:41;;;;;;;101.10;50.25;;;;;;;4.29;100.00;102927.91;4959191;28;20046;-89
2022/01/17 00:12:10;;;;;;;104.47;49.25;;;;;;;4.20;100.00;102924.97;4957952;28;20031;-89
2022/01/17 00:14:40;;;;;;;98.93;50.50;;;;;;;4.62;100.00;102986.19;4959087;28;20030;-89
2022/01/17 00:17:31;;;;;;;100.28;49.15;;;;;;;4.32;100.00;102943.78;4976481;28;20039;-89
2022/01/17 00:19:56;;;;;;;98.28;49.53;;;;;;;4.51;100.00;102978.97;4960912;28;20122;-89
2022/01/17 00:22:23;;;;;;;97.82;47.15;;;;;;;4.59;100.00;102985.56;4959244;28;20137;-89
2022/01/17 00:24:50;;;;;;;91.68;48.03;;;;;;;4.27;100.00;102936.09;4943808;28;20483;-89
2022/01/17 00:27:16;;;;;;;86.60;44.85;;;;;;;4.51;100.00;102980.81;4959197;28;20031;-90
2022/01/17 00:29:42;;;;;;;85.70;45.97;;;;;;;4.25;100.00;102939.88;4959268;28;20487;-90
2022/01/17 00:32:14;;;;;;;88.80;43.33;;;;;;;4.45;100.00;102967.84;4958959;28;20113;-90
2022/01/17 00:34:40;;;;;;;83.88;43.28;;;;;;;4.25;100.00;102931.81;4928138;28;20034;-90
2022/01/17 00:37:05;;;;;;;80.28;42.28;;;;;;;4.51;100.00;102970.06;4958690;28;20031;-89
2022/01/17 00:39:31;;;;;;;79.32;41.97;;;;;;;4.68;100.00;102988.38;4958906;28;20085;-89
2022/01/17 00:41:56;;;;;;;81.13;41.92;;;;;;;4.67;100.00;102989.34;4958524;28;20035;-90
2022/01/17 00:44:23;;;;;;;82.75;43.05;;;;;;;4.67;100.00;102992.03;4942970;28;20127;-89
2022/01/17 00:46:50;;;;;;;81.53;41.78;;;;;;;4.56;100.00;102973.22;4942521;28;20466;-90
2022/01/17 00:49:16;;;;;;;82.95;41.92;;;;;;;4.23;100.00;102923.88;4958858;28;20030;-90
2022/01/17 00:51:42;;;;;;;75.47;41.30;;;;;;;4.52;100.00;102985.22;4958374;28;20023;-90
2022/01/17 00:54:09;;;;;;;83.10;41.97;;;;;;;4.49;100.00;102974.72;4942356;28;20403;-90
2022/01/17 00:56:37;;;;;;;75.82;41.13;;;;;;;4.64;100.00;103012.94;4958173;28;20045;-91
2022/01/17 00:59:03;;;;;;;77.05;40.47;;;;;;;4.24;100.00;102936.34;4943151;28;20039;-90
2022/01/17 01:01:32;;;;;;;79.78;40.92;;;;;;;4.39;100.00;102959.28;4927152;28;20121;-90
2022/01/17 01:03:58;;;;;;;72.28;39.72;;;;;;;4.20;100.00;102935.72;4958736;28;20030;-90
2022/01/17 01:06:25;;;;;;;70.95;38.50;;;;;;;4.22;100.00;102949.91;4942872;28;20050;-90
2022/01/17 01:08:51;;;;;;;75.22;39.65;;;;;;;4.49;100.00;102985.47;4958487;28;20497;-89
2022/01/17 01:11:17;;;;;;;72.43;39.50;;;;;;;4.22;100.00;102946.34;4958307;28;20447;-90
2022/01/17 01:13:44;;;;;;;74.38;38.42;;;;;;;4.22;100.00;102952.59;4958591;28;20031;-90
2022/01/17 01:16:29;;;;;;;72.53;38.50;;;;;;;4.50;100.00;103014.91;4942327;28;20050;-90
2022/01/17 01:27:42;;;;;;;67.10;37.33;;;;;;;4.67;100.00;103020.75;4960862;28;20089;-89
2022/01/17 01:30:00;;;;;;;67.57;36.83;;;;;;;4.23;100.00;102950.75;4962290;28;20049;-90
2022/01/17 01:32:33;;;;;;;67.18;36.15;;;;;;;4.24;100.00;102943.53;4957686;28;20058;-89
2022/01/17 01:35:01;;;;;;;63.35;31.83;;;;;;;4.63;100.00;103004.00;4958002;28;20480;-90
2022/01/17 01:37:32;;;;;;;67.68;36.75;;;;;;;4.68;100.00;103012.56;4957797;28;20070;-90
2022/01/17 01:39:57;;;;;;;66.53;35.70;;;;;;;4.64;100.00;103008.41;4958372;28;20415;-90
2022/01/17 01:42:24;;;;;;;59.92;33.40;;;;;;;4.30;100.00;102960.03;4941890;28;20281;-90
2022/01/17 01:44:53;;;;;;;63.35;31.77;;;;;;;4.36;100.00;102983.72;4941617;28;20035;-89
2022/01/17 01:47:29;;;;;;;59.28;31.90;;;;;;;4.21;100.00;102984.97;4957382;28;20372;-89
2022/01/17 01:49:57;;;;;;;58.85;30.90;;;;;;;3.93;100.00;102949.50;4941918;28;20034;-90
2022/01/17 01:52:23;;;;;;;52.75;29.70;;;;;;;4.03;100.00;102990.78;4957565;28;20490;-89
2022/01/17 01:54:48;;;;;;;60.88;29.60;;;;;;;3.85;100.00;102976.09;4957679;28;20035;-89
2022/01/17 01:57:14;;;;;;;54.22;28.02;;;;;;;4.17;100.00;103031.84;4941253;28;20027;-89
2022/01/17 01:59:40;;;;;;;54.78;27.67;;;;;;;3.75;100.00;102973.28;4941491;28;20031;-89
2022/01/17 02:02:06;;;;;;;60.05;28.80;;;;;;;3.79;100.00;102971.22;4957325;28;20049;-89
2022/01/17 02:04:32;;;;;;;45.90;26.45;;;;;;;4.06;100.00;103015.69;4974007;28;20518;-90
2022/01/17 02:07:00;;;;;;;51.92;29.15;;;;;;;3.59;100.00;102954.81;4957459;28;20146;-90
2022/01/17 02:09:25;;;;;;;53.65;29.95;;;;;;;3.43;100.00;102951.59;4957575;28;20035;-90
2022/01/17 02:11:52;;;;;;;54.30;26.48;;;;;;;3.53;100.00;102966.03;4941450;28;20062;-90
2022/01/17 02:14:18;;;;;;;59.42;27.75;;;;;;;3.60;100.00;102998.59;4957443;28;20033;-90
2022/01/17 02:16:47;;;;;;;56.58;28.63;;;;;;;3.38;100.00;102972.53;4942174;28;20039;-90
2022/01/17 02:19:20;;;;;;;52.33;28.45;;;;;;;3.61;100.00;103003.84;4975165;28;20035;-90
2022/01/17 02:21:48;;;;;;;58.78;27.30;;;;;;;3.28;100.00;102961.66;4942510;28;20031;-90
2022/01/17 02:24:20;;;;;;;55.53;27.48;;;;;;;3.66;100.00;103039.28;4958610;28;20027;-90
2022/01/17 02:26:50;;;;;;;51.88;27.55;;;;;;;3.30;100.00;102990.06;4958382;28;20395;-90
2022/01/17 02:29:17;;;;;;;59.42;27.23;;;;;;;3.45;100.00;103006.00;4964311;28;20043;-90
2022/01/17 02:31:46;;;;;;;50.83;27.50;;;;;;;3.56;100.00;103014.09;4966454;28;20147;-91
2022/01/17 02:34:13;;;;;;;62.35;26.95;;;;;;;3.27;100.00;102976.88;4938704;29;20035;-91
2022/01/17 02:36:39;;;;;;;57.75;28.13;;;;;;;3.08;100.00;102947.88;4936530;29;20130;-90
2022/01/17 02:39:07;;;;;;;60.13;29.15;;;;;;;3.36;100.00;103004.00;4955916;29;20046;-91
2022/01/17 02:41:39;;;;;;;57.85;27.65;;;;;;;3.31;100.00;103010.56;4956121;29;20090;-91
2022/01/17 02:44:06;;;;;;;63.75;30.00;;;;;;;3.14;100.00;102976.09;4952098;29;20035;-91
2022/01/17 02:46:32;;;;;;;67.85;31.17;;;;;;;3.15;100.00;102975.97;4972299;29;20062;-90
2022/01/17 02:49:00;;;;;;;73.82;33.65;;;;;;;3.06;100.00;102965.09;4955271;29;20039;-90
2022/01/17 02:51:30;;;;;;;73.47;32.97;;;;;;;2.99;100.00;102956.63;4953118;29;20031;-90
2022/01/17 02:53:56;;;;;;;78.85;32.25;;;;;;;3.00;100.00;102961.03;4969169;28;20063;-91
2022/01/17 02:56:25;;;;;;;75.57;33.25;;;;;;;2.99;100.00;102968.19;4936518;29;20514;-91
2022/01/17 02:58:59;;;;;;;73.93;33.13;;;;;;;2.96;100.00;102963.06;4953572;29;20039;-92
2022/01/17 03:01:28;;;;;;;84.78;34.10;;;;;;;2.99;100.00;102965.53;4944070;29;20035;-92
2022/01/17 03:04:00;;;;;;;72.82;33.63;;;;;;;2.96;100.00;102967.59;4958765;28;20058;-92
2022/01/17 03:06:32;;;;;;;78.63;33.60;;;;;;;2.93;100.00;102957.94;4958895;28;20428;-92
2022/01/17 03:08:58;;;;;;;83.55;34.03;;;;;;;3.36;100.00;103015.59;4958812;28;20126;-92
2022/01/17 03:11:29;;;;;;;88.20;34.72;;;;;;;2.97;100.00;102959.41;4958729;28;20066;-92
2022/01/17 03:14:01;;;;;;;;;;;;;;;3.34;100.00;103020.22;4942599;29;20034;-92
2022/01/17 03:16:33;;;;;;;86.20;32.88;;;;;;;2.83;100.00;102940.81;4942862;29;19936;-92
2022/01/17 03:19:01;;;;;;;87.67;34.93;;;;;;;2.98;100.00;102965.63;4912437;29;20224;-90
2022/01/17 03:21:28;;;;;;;87.85;36.22;;;;;;;3.27;100.00;103017.13;4957457;28;20342;-90
2022/01/17 03:23:55;;;;;;;75.70;35.63;;;;;;;3.22;100.00;103021.13;4957631;29;20399;-90
2022/01/17 03:26:22;;;;;;;92.25;36.47;;;;;;;2.88;100.00;102957.44;4925963;29;20104;-90
2022/01/17 03:28:49;;;;;;;86.80;37.40;;;;;;;2.93;100.00;102947.19;4910978;29;20046;-89
2022/01/17 03:31:15;;;;;;;97.65;37.17;;;;;;;3.16;100.00;102990.25;4919260;28;20146;-90
2022/01/17 03:33:43;;;;;;;80.35;35.38;;;;;;;2.99;100.00;102941.38;4945219;28;20118;-90
2022/01/17 03:36:09;;;;;;;87.60;35.78;;;;;;;2.90;100.00;102946.59;4960868;28;20047;-90
2022/01/17 03:38:35;;;;;;;87.75;36.35;;;;;;;2.95;100.00;102966.75;4978117;28;20027;-90
2022/01/17 03:41:02;;;;;;;78.43;34.88;;;;;;;3.07;100.00;102994.47;4960483;28;20443;-90
2022/01/17 03:43:31;;;;;;;90.78;36.10;;;;;;;2.85;100.00;102959.47;4960918;28;20069;-90
2022/01/17 03:45:57;;;;;;;94.68;35.55;;;;;;;2.86;100.00;102962.03;4944195;28;20039;-90
2022/01/17 03:48:23;;;;;;;82.95;34.17;;;;;;;2.89;100.00;102964.47;4944663;28;20460;-90
2022/01/17 03:50:51;;;;;;;80.40;34.53;;;;;;;3.02;100.00;102987.72;4944667;28;20097;-90
2022/01/17 03:53:17;;;;;;;82.43;33.92;;;;;;;2.83;100.00;102961.41;4960335;28;20369;-90
2022/01/17 03:55:42;;;;;;;71.32;31.77;;;;;;;2.86;100.00;102967.41;4960474;28;20050;-90
2022/01/17 03:58:16;;;;;;;68.10;30.65;;;;;;;2.85;100.00;102970.19;4943584;28;20487;-89
2022/01/17 04:00:46;;;;;;;68.55;30.15;;;;;;;2.87;100.00;102965.59;4961150;28;20034;-89
2022/01/17 04:03:12;;;;;;;62.30;28.65;;;;;;;2.88;100.00;102978.88;4959591;28;20035;-89
2022/01/17 04:05:38;;;;;;;54.50;27.33;;;;;;;2.84;100.00;102982.75;4959799;28;20050;-89
2022/01/17 04:08:05;;;;;;;59.25;25.92;;;;;;;2.94;100.00;103002.56;4960301;28;20368;-90
2022/01/17 04:10:30;;;;;;;60.10;25.23;;;;;;;2.62;100.00;102960.16;4928121;28;20039;-89
2022/01/17 04:13:01;;;;;;;56.78;25.08;;;;;;;2.54;100.00;102961.69;4959219;28;20037;-90
2022/01/17 04:15:28;;;;;;;55.35;24.30;;;;;;;2.77;100.00;103008.28;4944055;28;20487;-89
2022/01/17 04:17:53;;;;;;;53.55;24.02;;;;;;;2.65;100.00;102988.59;4943367;28;20475;-90
2022/01/17 04:20:26;;;;;;;52.33;24.58;;;;;;;2.74;100.00;103003.16;4958975;28;20042;-89
2022/01/17 04:22:54;;;;;;;49.20;23.40;;;;;;;2.79;100.00;103012.59;4958843;28;20042;-90
2022/01/17 04:25:23;;;;;;;54.13;23.55;;;;;;;2.52;100.00;102964.47;4943147;28;20491;-90
2022/01/17 04:27:49;;;;;;;44.55;20.70;;;;;;;2.56;100.00;102970.50;4959279;28;20031;-89
2022/01/17 04:30:16;;;;;;;45.00;22.52;;;;;;;3.00;100.00;103049.53;4958966;28;20030;-90
2022/01/17 04:32:44;;;;;;;47.63;20.50;;;;;;;2.60;100.00;102980.88;4942832;28;20507;-89
2022/01/17 04:35:14;;;;;;;44.92;21.80;;;;;;;2.76;100.00;103015.47;4943083;28;20491;-90
2022/01/17 04:37:41;;;;;;;43.08;21.85;;;;;;;3.02;100.00;103050.28;4942766;28;20556;-90
2022/01/17 04:40:07;;;;;;;43.95;22.35;;;;;;;2.73;100.00;103007.66;4958674;28;20118;-90
2022/01/17 04:42:34;;;;;;;49.78;22.73;;;;;;;2.55;100.00;102983.03;4942888;28;20511;-90
2022/01/17 04:45:10;;;;;;;43.50;21.10;;;;;;;2.52;100.00;102982.41;4943003;28;20506;-90
2022/01/17 04:47:38;;;;;;;49.40;22.95;;;;;;;2.52;100.00;102969.84;4958267;28;20399;-90
2022/01/17 04:50:13;;;;;;;48.15;23.08;;;;;;;2.48;100.00;102972.84;4958530;28;20479;-90
2022/01/17 04:52:42;;;;;;;50.08;23.30;;;;;;;2.49;100.00;102979.94;4958423;28;20398;-90
2022/01/17 04:55:10;;;;;;;48.90;23.27;;;;;;;2.50;100.00;102978.97;4958713;28;20126;-90
2022/01/17 04:57:37;;;;;;;48.05;23.73;;;;;;;2.75;100.00;103029.84;4957551;28;20055;-90
2022/01/17 05:00:13;;;;;;;51.85;24.77;;;;;;;2.39;100.00;102977.03;4943000;28;20054;-91
2022/01/17 05:02:40;;;;;;;56.28;24.77;;;;;;;2.37;100.00;102971.81;4959267;28;20496;-91
2022/01/17 05:05:08;;;;;;;53.50;25.75;;;;;;;2.36;100.00;102980.81;4958684;28;20403;-90
2022/01/17 05:07:36;;;;;;;52.67;24.92;;;;;;;2.40;100.00;102995.69;4958934;28;20062;-91
2022/01/17 05:10:06;;;;;;;54.33;26.05;;;;;;;2.74;100.00;103046.88;4959145;28;20105;-91
2022/01/17 05:12:32;;;;;;;55.83;26.52;;;;;;;2.41;100.00;102994.72;4958626;28;20039;-91
2022/01/17 05:14:58;;;;;;;55.72;26.27;;;;;;;2.59;100.00;103040.81;4942657;28;20039;-91
2022/01/17 05:19:58;;;;;;;58.45;27.35;;;;;;;2.69;100.00;103075.00;4975796;28;20479;-91
2022/01/17 05:22:31;;;;;;;58.35;26.55;;;;;;;2.61;100.00;103079.09;4958632;28;20396;-91
2022/01/17 05:24:57;;;;;;;45.33;22.92;;;;;;;2.49;100.00;103053.13;4943185;28;20384;-90
2022/01/17 05:27:22;;;;;;;56.58;26.92;;;;;;;2.66;100.00;103080.56;4958156;28;20037;-91
2022/01/17 05:29:48;;;;;;;55.80;26.45;;;;;;;2.53;100.00;103051.97;4941719;28;20105;-90
2022/01/17 05:32:17;;;;;;;51.65;26.08;;;;;;;2.41;100.00;103052.84;4925655;28;20146;-90
2022/01/17 05:34:43;;;;;;;61.03;27.63;;;;;;;2.12;100.00;102999.47;4957773;28;20035;-90
2022/01/17 05:37:11;;;;;;;59.45;27.85;;;;;;;2.45;100.00;103065.03;4958130;28;20394;-90
2022/01/17 05:39:40;;;;;;;54.33;26.88;;;;;;;2.33;100.00;103047.16;4957710;28;20039;-90
2022/01/17 05:42:07;;;;;;;54.97;27.15;;;;;;;2.59;100.00;103093.56;4942422;28;20069;-90
2022/01/17 05:44:33;;;;;;;63.50;30.00;;;;;;;2.63;100.00;103089.72;4941707;28;20039;-90
2022/01/17 05:47:02;;;;;;;58.72;30.45;;;;;;;2.51;100.00;103077.16;4957384;28;20031;-90
2022/01/17 05:49:28;;;;;;;66.68;31.33;;;;;;;2.66;100.00;103094.84;4957709;28;20035;-89
2022/01/17 05:51:53;;;;;;;62.72;30.23;;;;;;;2.20;100.00;103009.63;4925439;28;20046;-90
2022/01/17 05:54:19;;;;;;;67.53;30.15;;;;;;;2.66;100.00;103088.59;4957570;28;20031;-90
2022/01/17 05:56:45;;;;;;;67.75;32.00;;;;;;;2.34;100.00;103035.47;4925633;28;20027;-89
2022/01/17 05:59:11;;;;;;;72.10;33.15;;;;;;;2.69;100.00;103083.91;4956887;28;20034;-89
2022/01/17 06:01:42;;;;;;;69.90;33.17;;;;;;;2.67;100.00;103083.13;4957456;28;20085;-89
2022/01/17 06:04:16;;;;;;;64.68;31.38;;;;;;;2.24;100.00;103029.88;4942118;28;20039;-90
2022/01/17 06:06:47;;;;;;;65.25;33.03;;;;;;;2.69;100.00;103109.84;4956902;28;20038;-90
2022/01/17 06:09:16;;;;;;;69.40;32.45;;;;;;;2.33;100.00;103044.47;4941977;28;20134;-90
2022/01/17 06:11:42;;;;;;;70.80;32.30;;;;;;;2.16;100.00;103025.06;4941683;28;20134;-89
2022/01/17 06:14:09;;;;;;;72.63;33.28;;;;;;;2.22;100.00;103039.88;4957012;28;20111;-90
2022/01/17 06:16:36;;;;;;;71.78;33.53;;;;;;;2.31;100.00;103055.28;4941476;28;20050;-90
2022/01/17 06:19:03;;;;;;;70.95;32.95;;;;;;;2.37;100.00;103073.59;4957223;28;20034;-89
2022/01/17 06:21:31;;;;;;;78.05;34.40;;;;;;;2.21;100.00;103038.13;4957054;28;20039;-89
2022/01/17 06:24:02;;;;;;;73.80;34.30;;;;;;;2.16;100.00;103027.75;4941504;28;20408;-90
2022/01/17 06:26:28;;;;;;;72.30;33.97;;;;;;;2.26;100.00;103069.00;4957215;28;20031;-89
2022/01/17 06:28:53;;;;;;;74.93;34.03;;;;;;;2.55;100.00;103110.81;4957411;28;20282;-91
2022/01/17 06:31:41;;;;;;;67.53;33.10;;;;;;;2.12;100.00;103044.16;4956942;28;20051;-92
2022/01/17 06:34:09;;;;;;;71.45;34.17;;;;;;;2.30;100.00;103052.72;4957402;28;20030;-87
2022/01/17 06:36:40;;;;;;;75.80;34.65;;;;;;;2.51;100.00;103077.16;4941638;28;20098;-89
2022/01/17 06:39:23;;;;;;;74.22;35.78;;;;;;;2.38;100.00;103066.44;4957622;28;20483;-91
2022/01/17 06:41:52;;;;;;;83.38;36.78;;;;;;;2.43;100.00;103102.66;4957309;28;20380;-92
2022/01/17 06:44:22;;;;;;;74.88;36.80;;;;;;;2.47;100.00;103106.00;4941865;28;20577;-92
2022/01/17 06:47:07;;;;;;;76.20;37.78;;;;;;;2.48;100.00;103101.47;4942030;28;20539;-92
2022/01/17 06:49:38;;;;;;;74.57;36.70;;;;;;;2.23;100.00;103054.94;4942374;28;20035;-92
2022/01/17 06:52:12;;;;;;;79.50;36.60;;;;;;;2.19;100.00;103048.13;4926706;28;20031;-92
2022/01/17 06:54:47;;;;;;;76.85;35.70;;;;;;;2.19;100.00;103053.47;4957372;28;20066;-92
2022/01/17 06:57:45;;;;;;;81.53;37.35;;;;;;;2.66;100.00;103148.47;4941908;28;20477;-92
2022/01/17 07:00:29;;;;;;;74.93;35.60;;;;;;;2.19;100.00;103077.59;4919681;28;20534;-92
2022/01/17 07:02:57;;;;;;;;;;;;;;;2.73;100.00;103170.31;4957867;28;20121;-92
2022/01/17 07:05:38;;;;;;;74.85;34.97;;;;;;;2.28;100.00;103101.03;4956575;28;19918;-92
2022/01/17 07:08:07;;;;;;;77.70;36.15;;;;;;;2.25;100.00;103103.94;4957512;28;20121;-92
2022/01/17 07:10:36;;;;;;;67.63;35.15;;;;;;;2.41;100.00;103154.66;4959562;28;20061;-92
2022/01/17 07:13:01;;;;;;;73.85;36.35;;;;;;;2.43;100.00;103142.00;4957790;28;20037;-91
2022/01/17 07:15:32;;;;;;;71.90;35.20;;;;;;;2.11;100.00;103088.78;4941346;28;20034;-91
2022/01/17 07:17:59;;;;;;;74.55;35.28;;;;;;;2.20;100.00;103082.81;4957183;28;20384;-90
2022/01/17 07:20:43;;;;;;;78.32;36.22;;;;;;;2.44;100.00;103116.94;4959243;28;20089;-91
2022/01/17 07:23:10;;;;;;;73.35;35.38;;;;;;;2.15;100.00;103060.84;4944568;28;20118;-92
2022/01/17 07:25:45;;;;;;;77.05;36.17;;;;;;;2.43;100.00;103096.44;4961910;28;20030;-91
2022/01/17 07:28:13;;;;;;;76.53;35.95;;;;;;;2.20;100.00;103045.31;4961384;28;20038;-92
2022/01/17 07:30:42;;;;;;;74.28;33.38;;;;;;;2.20;100.00;103036.41;4945244;28;20063;-91
2022/01/17 07:33:12;;;;;;;71.55;35.08;;;;;;;2.27;100.00;103054.66;4945552;28;20058;-91
2022/01/17 07:35:52;;;;;;;79.82;34.97;;;;;;;2.25;100.00;103055.72;4960829;28;20400;-92
2022/01/17 07:38:33;;;;;;;70.38;33.75;;;;;;;2.35;100.00;103074.69;4960592;28;20061;-92
2022/01/17 07:41:12;;;;;;;74.53;35.70;;;;;;;2.77;100.00;103136.97;4932211;28;20066;-92
2022/01/17 07:43:52;;;;;;;76.15;35.20;;;;;;;2.30;100.00;103066.13;4947081;28;20047;-92
2022/01/17 07:46:24;;;;;;;70.70;35.95;;;;;;;2.79;100.00;103143.94;4959601;28;20506;-92
2022/01/17 07:52:24;;;;;;;75.20;35.97;;;;;;;2.32;100.00;103075.75;4933720;28;20047;-92
2022/01/17 07:55:10;;;;;;;77.30;35.72;;;;;;;2.38;100.00;103091.41;4959737;28;20439;-92
2022/01/17 07:57:59;;;;;;;76.70;36.05;;;;;;;2.36;100.00;103117.47;4960160;28;20033;-91
2022/01/17 08:00:50;;;;;;;80.50;36.67;;;;;;;2.53;100.00;103136.88;4922692;28;20039;-91
2022/01/17 08:03:57;;;;;;;78.45;37.42;;;;;;;2.78;100.00;103185.13;4954987;28;20392;-92
2022/01/17 08:09:52;;;;;;;86.32;38.33;;;;;;;2.64;100.00;103166.44;4976825;28;20411;-92
2022/01/17 08:12:46;;;;;;;79.57;35.92;;;;;;;2.79;100.00;103207.41;4977031;28;20039;-91
2022/01/17 08:18:14;;;;;;;82.25;36.55;;;;;;;2.43;100.00;103142.84;4963114;28;20102;-91
2022/01/17 08:20:44;;;;;;;73.68;35.97;;;;;;;2.43;100.00;103137.50;4959348;28;20094;-91
2022/01/17 08:23:10;;;;;;;85.38;38.22;;;;;;;2.70;100.00;103174.09;4959718;28;20043;-91
2022/01/17 08:25:39;;;;;;;83.20;38.67;;;;;;;2.44;100.00;103123.13;4960054;28;20027;-91
2022/01/17 08:28:13;;;;;;;87.57;38.92;;;;;;;2.51;100.00;103139.66;4942895;28;20085;-92
2022/01/17 08:31:09;;;;;;;74.13;36.67;;;;;;;2.61;100.00;103148.78;4959667;28;20480;-91
2022/01/17 08:33:35;;;;;;;79.85;35.58;;;;;;;2.67;100.00;103143.94;4962725;28;20050;-92
2022/01/17 08:36:19;;;;;;;88.72;39.72;;;;;;;2.81;100.00;103147.38;4959496;28;20038;-91
2022/01/17 08:38:49;;;;;;;85.07;37.63;;;;;;;2.94;100.00;103144.69;4944807;28;20038;-91
2022/01/17 08:41:19;;;;;;;75.95;37.95;;;;;;;2.99;100.00;103142.53;4959681;28;20030;-93
2022/01/17 08:43:57;;;;;;;74.53;36.53;;;;;;;3.08;100.00;103135.66;4959446;28;20054;-91
2022/01/17 08:46:44;;;;;;;65.22;34.92;;;;;;;3.28;100.00;103142.28;4958779;28;20482;-92
2022/01/17 08:49:19;;;;;;;62.65;34.42;;;;;;;3.23;100.00;103111.38;4946092;28;20039;-91
2022/01/17 08:51:48;;;;;;;59.05;31.27;;;;;;;3.37;100.00;103113.06;4958919;28;20041;-92
2022/01/17 08:54:29;;;;;;;54.17;31.30;;;;;;;3.43;100.00;103134.94;4959139;28;20089;-92
2022/01/17 08:56:55;;;;;;;49.53;30.25;;;;;;;3.71;100.00;103165.13;4945266;28;20057;-92
2022/01/17 08:59:28;;;;;;;48.97;27.30;;;;;;;3.52;100.00;103133.41;4959432;28;20061;-84
2022/01/17 09:01:54;;;;;;;46.22;27.02;;;;;;;3.56;100.00;103142.97;4940722;28;20035;-86
2022/01/17 09:04:19;;;;;;;45.28;26.75;;;;;;;3.94;100.00;103195.66;4957559;28;20034;-87
2022/01/17 09:06:46;;;;;;;45.08;25.27;;;;;;;3.98;100.00;103188.22;4941149;28;20061;-86
2022/01/17 09:09:11;;;;;;;43.67;23.00;;;;;;;4.12;100.00;103214.03;4957322;28;20475;-86
2022/01/17 09:11:37;;;;;;;41.05;24.38;;;;;;;4.12;100.00;103205.97;4957397;28;20057;-86
2022/01/17 09:14:02;;;;;;;45.72;22.60;;;;;;;3.96;100.00;103163.31;4957117;28;20030;-86
2022/01/17 09:16:28;;;;;;;42.22;23.25;;;;;;;4.09;100.00;103182.91;4941378;28;20026;-86
2022/01/17 09:18:53;;;;;;;42.83;22.38;;;;;;;4.27;100.00;103209.38;4956603;28;20041;-89
2022/01/17 09:21:19;;;;;;;41.35;21.92;;;;;;;4.20;100.00;103204.44;4925381;28;20085;-89
2022/01/17 09:23:44;;;;;;;43.15;19.65;;;;;;;4.27;100.00;103223.66;4941452;28;20471;-86
2022/01/17 09:26:13;;;;;;;40.28;18.83;;;;;;;4.22;100.00;103215.94;4941034;28;20058;-87
2022/01/17 09:28:38;;;;;;;38.22;18.92;;;;;;;4.32;100.00;103216.09;4923521;29;20074;-86
2022/01/17 09:31:04;;;;;;;39.00;18.08;;;;;;;4.53;100.00;103245.00;4937566;29;20051;-88
2022/01/17 09:33:36;;;;;;;35.78;17.08;;;;;;;4.45;100.00;103234.00;4966020;23;20049;31
2022/01/17 09:36:02;;;;;;;;;;;;;;;4.79;100.00;103258.31;4915146;29;20408;-87
2022/01/17 09:38:27;;;;;;;34.92;16.05;;;;;;;4.47;100.00;103180.97;4934645;29;19923;-86
2022/01/17 09:40:53;;;;;;;38.05;16.58;;;;;;;4.92;100.00;103248.31;4918724;29;20036;-86
2022/01/17 09:43:18;;;;;;;29.58;14.98;;;;;;;4.88;100.00;103242.28;4950186;28;20127;-87
2022/01/17 09:45:44;;;;;;;31.50;14.68;;;;;;;4.85;100.00;103223.69;4934078;29;20036;-87
2022/01/17 09:48:14;;;;;;;32.42;14.50;;;;;;;4.68;100.00;103194.56;4934241;29;20563;-87
2022/01/17 09:50:56;;;;;;;31.20;14.13;;;;;;;5.09;100.00;103258.63;4934595;29;20126;-86
2022/01/17 09:53:25;;;;;;;30.20;13.45;;;;;;;4.71;100.00;103195.19;4909936;29;20499;-86
2022/01/17 09:55:51;;;;;;;32.15;13.77;;;;;;;4.78;100.00;103216.22;4898353;29;20503;-85
2022/01/17 09:58:16;;;;;;;30.05;13.85;;;;;;;5.02;100.00;103246.63;4916774;29;20120;-87
2022/01/17 10:00:43;;;;;;;26.52;12.13;;;;;;;4.90;100.00;103243.06;4915565;29;20076;-86
2022/01/17 10:03:18;;;;;;;29.10;12.15;;;;;;;5.19;100.00;103307.19;4899628;29;20039;-86
2022/01/17 10:05:44;;;;;;;35.80;12.30;;;;;;;5.12;100.00;103273.66;4916488;29;20035;-87
2022/01/17 10:08:15;;;;;;;23.60;10.95;;;;;;;5.23;100.00;103279.06;4899449;29;20400;-87
2022/01/17 10:10:57;;;;;;;30.10;11.50;;;;;;;5.02;100.00;103254.69;4915778;29;20036;-87
2022/01/17 10:13:29;;;;;;;30.02;10.93;;;;;;;5.22;100.00;103277.34;4916491;29;20051;-86
2022/01/17 10:16:09;;;;;;;27.27;11.00;;;;;;;5.21;100.00;103286.41;4900333;29;20032;-86
2022/01/17 10:18:42;;;;;;;28.08;10.55;;;;;;;4.91;100.00;103236.66;4916264;29;20054;-87
2022/01/17 10:21:19;;;;;;;30.10;10.65;;;;;;;5.17;100.00;103268.78;4916136;29;20040;-87
2022/01/17 10:24:25;;;;;;;32.95;10.52;;;;;;;5.37;100.00;103277.97;4916538;29;20031;-86
2022/01/17 10:34:57;;;;;;;28.10;8.68;;;;;;;5.19;100.00;103257.88;4916046;29;20080;-86
2022/01/17 10:37:29;;;;;;;29.85;9.27;;;;;;;5.12;100.00;103252.13;4899230;29;20032;-87
2022/01/17 10:39:58;;;;;;;29.38;8.88;;;;;;;5.10;100.00;103254.09;4916272;29;20051;-86
2022/01/17 10:42:34;;;;;;;27.08;8.85;;;;;;;5.20;100.00;103257.75;4899234;29;20024;-86
2022/01/17 10:45:08;;;;;;;31.42;8.88;;;;;;;5.55;100.00;103304.41;4915586;29;20043;-86
2022/01/17 10:47:37;;;;;;;23.45;8.70;;;;;;;5.35;100.00;103254.84;4916226;29;20042;-87
2022/01/17 10:50:18;;;;;;;26.65;8.68;;;;;;;5.39;100.00;103269.78;4914661;29;20138;-87
2022/01/17 10:52:47;;;;;;;32.40;8.68;;;;;;;5.54;100.00;103281.16;4930666;29;20119;-86
2022/01/17 10:55:14;;;;;;;24.90;7.78;;;;;;;5.26;100.00;103245.66;4917289;29;20051;-86
2022/01/17 10:57:45;;;;;;;26.08;7.53;;;;;;;5.28;100.00;103262.53;4935104;29;20040;-86
2022/01/17 11:00:15;;;;;;;26.42;7.20;;;;;;;5.51;100.00;103298.41;4920438;29;20043;-86
2022/01/17 11:02:52;;;;;;;24.92;7.25;;;;;;;5.42;100.00;103267.69;4919607;29;20062;-86
2022/01/17 11:05:21;;;;;;;31.70;8.10;;;;;;;5.63;100.00;103318.97;4920005;29;20036;-86
2022/01/17 11:07:47;;;;;;;23.70;7.55;;;;;;;5.61;100.00;103310.19;4934507;29;20032;-87
2022/01/17 11:10:25;;;;;;;25.63;7.70;;;;;;;5.48;100.00;103282.50;4919917;29;20036;-87
2022/01/17 11:12:53;;;;;;;27.98;7.93;;;;;;;5.83;100.00;103339.91;4919733;29;20036;-86
2022/01/17 11:15:20;;;;;;;28.77;7.70;;;;;;;5.61;100.00;103274.31;4934383;29;20036;-87
2022/01/17 11:17:51;;;;;;;26.25;6.65;;;;;;;5.90;100.00;103330.38;4934340;29;20068;-86
2022/01/17 11:20:20;;;;;;;29.25;8.23;;;;;;;5.95;100.00;103341.66;4902388;29;20040;-86
2022/01/17 11:22:47;;;;;;;25.73;7.28;;;;;;;5.68;99.47;103272.81;4902892;29;20473;-87
2022/01/17 11:25:20;;;;;;;30.95;7.53;;;;;;;5.80;99.20;103276.34;4934041;29;20055;-87
2022/01/17 11:27:49;;;;;;;27.65;6.95;;;;;;;6.00;99.36;103309.81;4902516;29;20028;-86
2022/01/17 11:30:16;;;;;;;27.15;7.32;;;;;;;5.97;99.53;103277.72;4919405;29;20043;-87
2022/01/17 11:32:46;;;;;;;27.63;6.68;;;;;;;6.10;99.13;103305.38;4901950;29;20032;-86
2022/01/17 11:35:13;;;;;;;24.17;6.88;;;;;;;6.19;98.34;103303.78;4919655;29;20059;-86
2022/01/17 11:37:43;;;;;;;30.33;6.78;;;;;;;6.21;98.43;103303.66;4917428;29;20161;-86
2022/01/17 11:40:10;;;;;;;23.98;7.32;;;;;;;6.15;98.21;103292.38;4901813;29;20034;-86
2022/01/17 11:42:37;;;;;;;26.92;6.63;;;;;;;6.17;98.46;103294.09;4933765;29;20220;-87
2022/01/17 11:45:21;;;;;;;25.23;6.28;;;;;;;6.19;99.42;103313.72;4919026;29;20436;-86
2022/01/17 11:47:51;;;;;;;28.15;6.38;;;;;;;6.19;98.59;103314.56;4933631;29;20127;-87
2022/01/17 11:50:41;;;;;;;26.77;6.50;;;;;;;6.25;99.25;103321.28;4919208;29;20028;-86
2022/01/17 11:53:12;;;;;;;26.67;6.53;;;;;;;6.29;98.73;103339.78;4920285;29;20043;-87
2022/01/17 11:58:25;;;;;;;29.00;6.60;;;;;;;6.37;98.59;103336.44;4919376;29;20032;-89